Latest Weather Observations for Spitfire Channel

IDQ60801

Issued at 2:02 pm EST Saturday 21 January 2017 (issued every 30 minutes, with the page automatically refreshed every 10 minutes)

About weather observations | Map of weather stations | Latest weather observations for QLD | Other Formats
Station Details ID: 040927 Name: SPITFIRE CHANNEL BEACON Lat: -27.05 Lon: 153.27 Height: 7.0 m
Data from the previous 72 hours. | See also: Recent months for locations in Queensland
Date/Time
EST
Temp
°C
App
Temp
°C
Dew
Point
°C
Rel
Hum
%
Delta-T
°C
Wind Press
QNH
hPa
Press
MSL
hPa
Rain since
9am
mm
Dir  Spd
km/h
Gust
km/h
Spd
kts
Gust
kts
21/01:30pm - - - - - ESE 39 44 21 24 - - -
21/01:00pm - - - - - ESE 35 41 19 22 - - -
21/12:30pm - - - - - E 24 37 13 20 - - -
21/12:00pm - - - - - ENE 9 11 5 6 - - -
21/11:30am - - - - - ENE 11 15 6 8 - - -
21/11:00am - - - - - N 9 11 5 6 - - -
21/10:30am - - - - - NNW 9 9 5 5 - - -
21/10:00am - - - - - NNW 17 20 9 11 - - -
21/09:30am - - - - - NNW 15 17 8 9 - - -
21/09:00am - - - - - NNW 15 19 8 10 - - -
21/08:30am - - - - - NNW 13 19 7 10 - - -
21/08:00am - - - - - NW 13 17 7 9 - - -
21/07:30am - - - - - NNW 13 19 7 10 - - -
21/07:00am - - - - - WNW 15 17 8 9 - - -
21/06:30am - - - - - WNW 19 22 10 12 - - -
21/06:00am - - - - - NW 9 13 5 7 - - -
21/05:30am - - - - - NW 11 15 6 8 - - -
21/05:00am - - - - - NW 17 22 9 12 - - -
21/04:30am - - - - - NNW 24 28 13 15 - - -
21/04:00am - - - - - NNW 30 33 16 18 - - -
21/03:30am - - - - - NW 30 37 16 20 - - -
21/03:00am - - - - - NNW 30 35 16 19 - - -
21/02:30am - - - - - NNW 32 37 17 20 - - -
21/02:00am - - - - - NNW 32 37 17 20 - - -
21/01:30am - - - - - NNW 32 35 17 19 - - -
21/01:00am - - - - - NNW 28 33 15 18 - - -
21/12:30am - - - - - NNW 30 33 16 18 - - -
21/12:00am - - - - - NNW 28 35 15 19 - - -
 
Date/Time
EST
Temp
°C
App
Temp
°C
Dew
Point
°C
Rel
Hum
%
Delta-T
°C
Wind Press
QNH
hPa
Press
MSL
hPa
Rain since
9am
mm
Dir  Spd
km/h
Gust
km/h
Spd
kts
Gust
kts
20/11:30pm - - - - - NNW 26 32 14 17 - - -
20/11:00pm - - - - - NNW 24 28 13 15 - - -
20/10:30pm - - - - - NNW 22 26 12 14 - - -
20/10:00pm - - - - - NW 19 32 10 17 - - -
20/09:40pm - - - - - NW 32 43 17 23 - - -
20/09:30pm - - - - - NNW 37 44 20 24 - - -
20/09:00pm - - - - - NNW 37 46 20 25 - - -
20/08:30pm - - - - - NNW 41 48 22 26 - - -
20/08:00pm - - - - - NNW 41 50 22 27 - - -
20/07:30pm - - - - - N 35 46 19 25 - - -
20/07:00pm - - - - - N 37 43 20 23 - - -
20/06:30pm - - - - - N 37 46 20 25 - - -
20/06:00pm - - - - - N 39 44 21 24 - - -
20/05:30pm - - - - - N 35 43 19 23 - - -
20/05:00pm - - - - - N 33 39 18 21 - - -
20/04:30pm - - - - - N 35 41 19 22 - - -
20/04:00pm - - - - - N 33 39 18 21 - - -
20/03:30pm - - - - - N 30 35 16 19 - - -
20/03:00pm - - - - - N 26 32 14 17 - - -
20/02:30pm - - - - - N 24 32 13 17 - - -
20/02:00pm - - - - - N 26 30 14 16 - - -
20/01:30pm - - - - - NNE 22 26 12 14 - - -
20/01:00pm - - - - - NNE 19 20 10 11 - - -
20/12:30pm - - - - - NNE 17 19 9 10 - - -
20/12:00pm - - - - - NNE 15 19 8 10 - - -
20/11:30am - - - - - NE 11 15 6 8 - - -
20/11:00am - - - - - NNE 7 9 4 5 - - -
20/10:30am - - - - - N 7 11 4 6 - - -
20/10:00am - - - - - NNW 4 6 2 3 - - -
20/09:30am - - - - - NW 4 7 2 4 - - -
20/09:00am - - - - - NW 9 13 5 7 - - -
20/08:30am - - - - - W 11 15 6 8 - - -
20/08:00am - - - - - WSW 13 15 7 8 - - -
20/07:30am - - - - - WSW 15 17 8 9 - - -
20/07:00am - - - - - W 17 28 9 15 - - -
20/06:30am - - - - - E 4 6 2 3 - - -
20/06:00am - - - - - SE 6 9 3 5 - - -
20/05:30am - - - - - SSE 4 6 2 3 - - -
20/05:00am - - - - - ESE 4 6 2 3 - - -
20/04:30am - - - - - ESE 4 6 2 3 - - -
20/04:00am - - - - - ESE 6 7 3 4 - - -
20/03:30am - - - - - E 7 11 4 6 - - -
20/03:00am - - - - - E 11 15 6 8 - - -
20/02:30am - - - - - E 15 17 8 9 - - -
20/02:00am - - - - - ESE 11 15 6 8 - - -
20/01:30am - - - - - ESE 11 15 6 8 - - -
20/01:00am - - - - - ESE 11 13 6 7 - - -
20/12:30am - - - - - ESE 13 19 7 10 - - -
20/12:00am - - - - - ESE 17 20 9 11 - - -
 
Date/Time
EST
Temp
°C
App
Temp
°C
Dew
Point
°C
Rel
Hum
%
Delta-T
°C
Wind Press
QNH
hPa
Press
MSL
hPa
Rain since
9am
mm
Dir  Spd
km/h
Gust
km/h
Spd
kts
Gust
kts
19/11:30pm - - - - - ESE 19 22 10 12 - - -
19/11:00pm - - - - - ESE 22 28 12 15 - - -
19/10:30pm - - - - - ESE 24 28 13 15 - - -
19/10:00pm - - - - - ESE 24 28 13 15 - - -
19/09:30pm - - - - - ESE 22 32 12 17 - - -
19/09:00pm - - - - - ESE 22 26 12 14 - - -
19/08:30pm - - - - - ESE 22 28 12 15 - - -
19/08:00pm - - - - - ESE 26 32 14 17 - - -
19/07:30pm - - - - - ESE 24 32 13 17 - - -
19/07:00pm - - - - - ESE 30 37 16 20 - - -
19/06:30pm - - - - - ESE 32 43 17 23 - - -
19/06:00pm - - - - - ESE 33 39 18 21 - - -
19/05:30pm - - - - - ESE 32 39 17 21 - - -
19/05:00pm - - - - - ESE 33 39 18 21 - - -
19/04:30pm - - - - - ESE 37 46 20 25 - - -
19/04:00pm - - - - - ESE 35 43 19 23 - - -
19/03:30pm - - - - - ESE 33 39 18 21 - - -
19/03:00pm - - - - - ESE 33 39 18 21 - - -
19/02:30pm - - - - - ESE 33 43 18 23 - - -
19/02:00pm - - - - - ESE 30 37 16 20 - - -
19/01:30pm - - - - - ESE 33 41 18 22 - - -
19/01:00pm - - - - - ESE 32 37 17 20 - - -
19/12:30pm - - - - - ESE 35 41 19 22 - - -
19/12:00pm - - - - - ESE 33 41 18 22 - - -
19/11:30am - - - - - ESE 33 43 18 23 - - -
19/11:00am - - - - - ESE 30 37 16 20 - - -
19/10:30am - - - - - SE 32 37 17 20 - - -
19/10:00am - - - - - SE 33 39 18 21 - - -
19/09:30am - - - - - SE 32 37 17 20 - - -
19/09:00am - - - - - SE 33 41 18 22 - - -
19/08:30am - - - - - ESE 30 35 16 19 - - -
19/08:00am - - - - - ESE 30 37 16 20 - - -
19/07:30am - - - - - ESE 30 35 16 19 - - -
19/07:00am - - - - - SE 32 37 17 20 - - -
19/06:30am - - - - - ESE 24 32 13 17 - - -
19/06:00am - - - - - E 17 24 9 13 - - -
19/05:30am - - - - - E 13 17 7 9 - - -
19/05:00am - - - - - ENE 15 17 8 9 - - -
19/04:30am - - - - - W 2 9 1 5 - - -
19/04:00am - - - - - NNW 19 22 10 12 - - -
19/03:30am - - - - - NW 24 30 13 16 - - -
19/03:00am - - - - - NNW 30 33 16 18 - - -
19/02:30am - - - - - NNW 28 32 15 17 - - -
19/02:00am - - - - - NNW 28 35 15 19 - - -
19/01:30am - - - - - NNW 32 37 17 20 - - -
19/01:00am - - - - - NNW 33 39 18 21 - - -
19/12:30am - - - - - NNW 33 39 18 21 - - -
19/12:00am - - - - - NNW 32 37 17 20 - - -
 
Date/Time
EST
Temp
°C
App
Temp
°C
Dew
Point
°C
Rel
Hum
%
Delta-T
°C
Wind Press
QNH
hPa
Press
MSL
hPa
Rain since
9am
mm
Dir  Spd
km/h
Gust
km/h
Spd
kts
Gust
kts
18/11:30pm - - - - - NNW 33 39 18 21 - - -
18/11:00pm - - - - - NNW 33 39 18 21 - - -
18/10:30pm - - - - - NNW 35 43 19 23 - - -
18/10:00pm - - - - - NNW 35 41 19 22 - - -
18/09:30pm - - - - - NNW 35 43 19 23 - - -
18/09:00pm - - - - - NNW 33 41 18 22 - - -
18/08:30pm - - - - - NNW 35 43 19 23 - - -
18/08:00pm - - - - - NNW 37 44 20 24 - - -
18/07:30pm - - - - - NNW 35 44 19 24 - - -
18/07:00pm - - - - - NNW 32 41 17 22 - - -
18/06:30pm - - - - - NNW 35 44 19 24 - - -
18/06:00pm - - - - - N 37 44 20 24 - - -
18/05:30pm - - - - - N 35 43 19 23 - - -
18/05:00pm - - - - - N 32 41 17 22 - - -
18/04:30pm - - - - - N 32 39 17 21 - - -
18/04:00pm - - - - - N 32 37 17 20 - - -
18/03:30pm - - - - - N 32 39 17 21 - - -
18/03:00pm - - - - - N 32 37 17 20 - - -
18/02:30pm - - - - - N 30 35 16 19 - - -

Other Formats:

Comma delimited format used in spreadsheet applications
http://www.bom.gov.au/fwo/IDQ60801/IDQ60801.94581.axf

JavaScript Object Notation format (JSON) in row-major order
http://www.bom.gov.au/fwo/IDQ60801/IDQ60801.94581.json